Time;durP1;ratioP1;P1;durP2;ratioP2;P2;SDS_P1;SDS_P2;PMS_P1;PMS_P2;Temp;Humidity;BMP_temperature;BMP_pressure;BME280_temperature;BME280_humidity;BME280_pressure;Samples;Min_cycle;Max_cycle;Signal;HPM_P1;HPM_P2
2023/04/16 00:01:47;;;;;;;57.75;17.88;;;;;;;8.55;100.00;102002.50;5020090;28;20429;-79
2023/04/16 00:04:12;;;;;;;65.93;19.80;;;;;;;8.51;100.00;102004.31;5018210;28;20128;-79
2023/04/16 00:06:38;;;;;;;48.08;18.63;;;;;;;8.33;100.00;102001.59;5021280;28;20112;-79
2023/04/16 00:09:03;;;;;;;59.60;21.05;;;;;;;8.31;100.00;102014.25;5025665;28;20374;-79
2023/04/16 00:11:28;;;;;;;52.90;19.38;;;;;;;8.23;100.00;101981.63;5017731;28;20025;-79
2023/04/16 00:13:54;;;;;;;52.67;17.85;;;;;;;8.47;100.00;102003.34;5014016;28;20084;-79
2023/04/16 00:16:19;;;;;;;54.65;19.70;;;;;;;8.42;100.00;102004.38;5015546;28;20025;-79
2023/04/16 00:18:45;;;;;;;56.25;21.15;;;;;;;8.39;100.00;102007.81;5018459;28;20100;-79
2023/04/16 00:21:10;;;;;;;46.42;18.00;;;;;;;8.50;100.00;102014.66;5019364;28;20268;-79
2023/04/16 00:23:36;;;;;;;50.58;16.40;;;;;;;8.49;100.00;102013.00;5019236;28;20025;-79
2023/04/16 00:26:02;;;;;;;52.25;19.17;;;;;;;8.43;100.00;102016.34;5019039;28;20118;-79
2023/04/16 00:28:27;;;;;;;60.08;21.30;;;;;;;8.48;100.00;102016.16;5016259;28;20385;-79
2023/04/16 00:30:53;;;;;;;46.17;18.48;;;;;;;8.48;100.00;102010.59;5020073;28;20761;-79
2023/04/16 00:33:19;;;;;;;45.28;20.02;;;;;;;8.44;100.00;102009.63;5019799;28;20535;-79
2023/04/16 00:35:47;;;;;;;61.05;23.60;;;;;;;8.50;100.00;102009.09;5023971;28;20029;-79
2023/04/16 00:38:13;;;;;;;59.03;19.73;;;;;;;8.40;100.00;102019.78;5019446;28;20021;-79
2023/04/16 00:40:39;;;;;;;61.25;19.42;;;;;;;8.41;100.00;102010.28;5014909;28;20481;-79
2023/04/16 00:43:04;;;;;;;61.17;20.13;;;;;;;8.52;100.00;102011.53;5015110;28;20056;-79
2023/04/16 00:45:30;;;;;;;52.55;18.23;;;;;;;8.55;100.00;102011.66;5019568;28;20092;-79
2023/04/16 00:47:56;;;;;;;49.28;19.02;;;;;;;8.61;100.00;102014.28;5020857;28;20112;-79
2023/04/16 00:50:22;;;;;;;52.88;20.00;;;;;;;8.57;100.00;102014.13;5019234;28;20444;-79
2023/04/16 00:52:48;;;;;;;51.53;19.88;;;;;;;8.57;100.00;102016.94;5018077;28;20021;-79
2023/04/16 00:55:14;;;;;;;53.15;21.75;;;;;;;8.50;100.00;102020.25;5018949;28;20029;-79
2023/04/16 00:57:40;;;;;;;58.50;21.98;;;;;;;8.49;100.00;102012.19;5019253;28;20489;-79
2023/04/16 01:00:06;;;;;;;75.13;23.83;;;;;;;8.48;100.00;102010.59;5014130;28;20029;-79
2023/04/16 01:02:33;;;;;;;69.82;23.92;;;;;;;8.43;100.00;102007.97;5035206;28;20040;-79
2023/04/16 01:05:00;;;;;;;59.95;23.02;;;;;;;8.53;100.00;102007.59;5019972;28;20393;-79
2023/04/16 01:07:25;;;;;;;58.10;21.30;;;;;;;8.59;100.00;102017.41;5032021;28;20032;-79
2023/04/16 01:09:50;;;;;;;53.58;22.88;;;;;;;8.67;100.00;102024.91;5017437;28;20037;-79
2023/04/16 01:12:16;;;;;;;63.10;22.30;;;;;;;8.65;100.00;102026.41;5016076;28;20055;-79
2023/04/16 01:14:41;;;;;;;53.65;22.20;;;;;;;8.62;100.00;102025.13;5021883;28;20046;-79
2023/04/16 01:17:06;;;;;;;68.22;21.40;;;;;;;8.58;100.00;102017.72;5014944;28;20041;-79
2023/04/16 01:19:35;;;;;;;57.03;23.98;;;;;;;8.51;100.00;102016.28;5013943;28;20033;-79
2023/04/16 01:22:01;;;;;;;55.10;22.63;;;;;;;8.58;100.00;102015.78;5011938;28;20029;-79
2023/04/16 01:24:27;;;;;;;66.93;24.63;;;;;;;8.53;100.00;102024.34;5012986;28;20470;-79
2023/04/16 01:26:52;;;;;;;74.90;27.20;;;;;;;8.44;100.00;102023.56;5016060;28;20044;-79
2023/04/16 01:29:18;;;;;;;63.47;24.77;;;;;;;8.49;100.00;102015.00;5018222;28;20057;-79
2023/04/16 01:31:45;;;;;;;65.53;21.30;;;;;;;8.55;100.00;102019.22;5016649;28;20152;-79
2023/04/16 01:34:10;;;;;;;61.67;24.05;;;;;;;8.55;100.00;102017.25;5015500;28;20571;-79
2023/04/16 01:36:36;;;;;;;60.15;22.17;;;;;;;8.53;100.00;102021.53;5011606;28;20029;-79
2023/04/16 01:39:02;;;;;;;68.95;22.90;;;;;;;8.55;100.00;102024.81;5029233;28;20025;-79
2023/04/16 01:41:27;;;;;;;67.53;24.85;;;;;;;8.55;100.00;102019.22;5010849;28;20470;-79
2023/04/16 01:43:52;;;;;;;66.57;25.05;;;;;;;8.57;100.00;102018.91;5013059;28;20512;-79
2023/04/16 01:46:27;;;;;;;71.38;26.75;;;;;;;8.54;100.00;102018.44;5007036;28;20522;-79
2023/04/16 01:48:54;;;;;;;75.50;26.30;;;;;;;8.49;100.00;102012.19;5015672;28;20082;-79
2023/04/16 01:51:20;;;;;;;65.13;24.38;;;;;;;8.46;100.00;102016.50;5007175;28;20052;-79
2023/04/16 01:53:46;;;;;;;62.70;24.42;;;;;;;8.45;100.00;102011.25;5013913;28;20053;-79
2023/04/16 01:56:11;;;;;;;73.00;29.67;;;;;;;8.44;100.00;102009.63;5011286;28;20140;-79
2023/04/16 01:58:37;;;;;;;62.25;24.23;;;;;;;8.55;100.00;102013.66;5011550;28;20104;-79
2023/04/16 02:01:04;;;;;;;66.38;28.15;;;;;;;8.51;100.00;102021.88;5014026;28;20124;-79
2023/04/16 02:03:30;;;;;;;71.22;26.08;;;;;;;8.44;100.00;102017.97;5005624;28;20034;-79
2023/04/16 02:05:55;;;;;;;68.50;26.92;;;;;;;8.44;100.00;102020.78;5014744;28;20029;-79
2023/04/16 02:08:21;;;;;;;69.88;26.42;;;;;;;8.43;100.00;102019.97;5009938;28;22834;-78
2023/04/16 02:10:48;;;;;;;61.30;24.98;;;;;;;8.53;100.00;102021.53;5026975;28;20036;-79
2023/04/16 02:13:15;;;;;;;67.13;25.13;;;;;;;8.55;100.00;102017.25;5009069;28;20049;-78
2023/04/16 02:15:46;;;;;;;65.68;26.52;;;;;;;8.47;100.00;102015.31;5014603;28;20026;-79
2023/04/16 02:18:12;;;;;;;78.78;27.02;;;;;;;8.54;100.00;102020.41;5003727;28;20039;-79
2023/04/16 02:20:46;;;;;;;64.78;25.08;;;;;;;8.54;100.00;102014.81;5014760;28;20041;-78
2023/04/16 02:23:13;;;;;;;74.80;26.77;;;;;;;8.42;100.00;102006.34;5011892;28;20082;-79
2023/04/16 02:25:43;;;;;;;66.13;24.17;;;;;;;8.51;100.00;102018.25;5019325;28;21493;-78
2023/04/16 02:28:10;;;;;;;76.70;27.45;;;;;;;8.50;100.00;102017.47;5011204;28;20750;-79
2023/04/16 02:30:37;;;;;;;64.50;25.48;;;;;;;8.45;100.00;102011.25;5013318;28;20552;-78
2023/04/16 02:33:04;;;;;;;80.65;30.38;;;;;;;8.38;100.00;102020.09;5013476;28;20675;-79
2023/04/16 02:35:31;;;;;;;67.05;25.52;;;;;;;8.59;100.00;102023.00;5014813;28;20030;-79
2023/04/16 02:37:57;;;;;;;69.05;25.00;;;;;;;8.58;100.00;102015.78;5017128;28;20060;-79
2023/04/16 02:40:22;;;;;;;78.00;25.45;;;;;;;8.54;100.00;102009.25;5018494;28;20459;-79
2023/04/16 02:42:47;;;;;;;64.32;27.77;;;;;;;8.51;100.00;102009.91;5017386;28;20149;-79
2023/04/16 02:45:13;;;;;;;52.53;22.73;;;;;;;8.53;100.00;102013.97;5015103;28;21289;-79
2023/04/16 02:47:38;;;;;;;62.03;25.05;;;;;;;8.55;100.00;102014.47;5012856;28;20037;-79
2023/04/16 02:50:05;;;;;;;71.18;25.48;;;;;;;8.56;100.00;102023.69;5017286;28;20267;-78
2023/04/16 02:52:31;;;;;;;62.47;26.88;;;;;;;8.51;100.00;102018.25;5016891;28;20741;-78
2023/04/16 02:54:56;;;;;;;57.22;24.38;;;;;;;8.53;100.00;102021.53;5019727;28;20113;-79
2023/04/16 02:57:22;;;;;;;57.13;24.33;;;;;;;8.51;100.00;102024.66;5016053;28;20528;-78
2023/04/16 02:59:47;;;;;;;52.90;25.02;;;;;;;8.63;100.00;102028.72;5013285;28;21059;-79
2023/04/16 03:02:13;;;;;;;63.22;23.98;;;;;;;8.57;100.00;102030.88;5016155;28;20083;-79
2023/04/16 03:04:38;;;;;;;62.10;24.25;;;;;;;8.45;100.00;102030.78;5034582;28;20040;-79
2023/04/16 03:07:04;;;;;;;63.05;24.40;;;;;;;8.52;100.00;102031.09;5021386;28;20014;-79
2023/04/16 03:09:30;;;;;;;58.78;22.40;;;;;;;8.45;100.00;102034.38;5022218;28;20029;-79
2023/04/16 03:11:55;;;;;;;63.25;26.25;;;;;;;8.56;100.00;102032.03;5019631;28;20037;-79
2023/04/16 03:14:21;;;;;;;59.95;24.88;;;;;;;8.52;100.00;102033.88;5016008;28;20088;-79
2023/04/16 03:16:46;;;;;;;67.80;25.98;;;;;;;8.55;100.00;102038.78;5020754;28;20095;-79
2023/04/16 03:19:11;;;;;;;71.38;25.90;;;;;;;8.48;100.00;102035.69;5026365;28;20042;-79
2023/04/16 03:21:37;;;;;;;61.08;25.80;;;;;;;8.52;100.00;102033.88;5020617;28;20104;-79
2023/04/16 03:24:02;;;;;;;60.50;24.15;;;;;;;8.59;100.00;102045.31;5022345;28;20575;-79
2023/04/16 03:26:27;;;;;;;68.45;27.05;;;;;;;8.63;100.00;102037.91;5020657;28;20040;-78
2023/04/16 03:28:53;;;;;;;66.13;26.98;;;;;;;8.55;100.00;102053.53;5021728;28;20072;-79
2023/04/16 03:31:18;;;;;;;64.43;27.42;;;;;;;8.53;100.00;102052.25;5025631;28;20033;-79
2023/04/16 03:33:43;;;;;;;62.97;26.05;;;;;;;8.44;100.00;102048.69;5016143;28;20107;-78
2023/04/16 03:36:09;;;;;;;64.78;26.88;;;;;;;8.51;100.00;102043.38;5021653;28;20033;-79
2023/04/16 03:38:35;;;;;;;61.63;23.88;;;;;;;8.49;100.00;102051.28;5024385;28;20025;-79
2023/04/16 03:41:01;;;;;;;61.45;25.98;;;;;;;8.64;100.00;102042.31;5023398;28;20121;-79
2023/04/16 03:43:26;;;;;;;64.30;24.02;;;;;;;8.59;100.00;102042.53;5017102;28;20037;-79
2023/04/16 03:45:51;;;;;;;58.58;23.17;;;;;;;8.67;100.00;102047.25;5019674;28;20036;-79
2023/04/16 03:48:17;;;;;;;50.20;21.52;;;;;;;8.61;100.00;102048.59;5022094;28;20041;-78
2023/04/16 03:50:49;;;;;;;60.13;25.95;;;;;;;8.64;100.00;102047.91;5014753;28;20022;-79
2023/04/16 03:53:14;;;;;;;50.92;22.48;;;;;;;8.71;100.00;102056.59;5011999;28;20029;-78
2023/04/16 03:55:40;;;;;;;63.72;26.95;;;;;;;8.74;100.00;102055.91;5016198;28;20029;-79
2023/04/16 03:58:06;;;;;;;50.88;22.73;;;;;;;8.77;100.00;102053.59;5013172;28;20049;-78
2023/04/16 04:00:31;;;;;;;72.50;28.48;;;;;;;8.63;100.00;102065.00;5012759;28;20590;-79
2023/04/16 04:02:56;;;;;;;69.72;27.42;;;;;;;8.53;100.00;102057.81;5015568;28;20746;-79
2023/04/16 04:05:22;;;;;;;64.85;26.33;;;;;;;8.48;100.00;102058.03;5012748;28;20029;-78
2023/04/16 04:07:47;;;;;;;60.63;24.58;;;;;;;8.56;100.00;102051.59;5017537;28;20529;-79
2023/04/16 04:10:13;;;;;;;68.68;27.38;;;;;;;8.53;100.00;102068.97;5010298;28;20387;-79
2023/04/16 04:12:38;;;;;;;56.28;25.02;;;;;;;8.59;100.00;102062.06;5017168;28;20063;-79
2023/04/16 04:15:04;;;;;;;56.50;25.75;;;;;;;8.62;100.00;102064.19;4998994;28;20021;-79
2023/04/16 04:17:29;;;;;;;54.67;24.83;;;;;;;8.64;100.00;102052.69;5003422;28;20520;-78
2023/04/16 04:19:55;;;;;;;64.03;26.27;;;;;;;8.63;100.00;102049.06;5012008;28;20041;-78
2023/04/16 04:22:20;;;;;;;59.10;26.27;;;;;;;8.69;100.00;102070.06;5015727;28;20021;-79
2023/04/16 04:24:45;;;;;;;70.00;27.95;;;;;;;8.61;100.00;102073.72;5016158;28;20481;-79
2023/04/16 04:27:11;;;;;;;54.35;23.95;;;;;;;8.62;100.00;102069.78;5008724;28;20120;-79
2023/04/16 04:29:36;;;;;;;57.63;24.38;;;;;;;8.72;100.00;102080.53;5014143;28;20021;-79
2023/04/16 04:32:01;;;;;;;47.75;21.60;;;;;;;8.72;100.00;102069.38;5006117;28;20045;-79
2023/04/16 04:34:27;;;;;;;53.78;23.83;;;;;;;8.57;100.00;102072.75;5015787;28;20018;-78
2023/04/16 04:36:52;;;;;;;55.40;23.30;;;;;;;8.51;100.00;102079.66;5018665;28;20035;-79
2023/04/16 04:39:20;;;;;;;45.50;22.00;;;;;;;8.67;100.00;102082.72;5022412;28;20021;-79
2023/04/16 04:41:46;;;;;;;53.53;22.27;;;;;;;8.71;100.00;102092.88;5035376;28;20490;-78
2023/04/16 04:44:11;;;;;;;60.20;26.38;;;;;;;8.62;100.00;102089.31;5015570;28;20030;-79
2023/04/16 04:46:37;;;;;;;55.00;24.83;;;;;;;8.56;100.00;102096.25;5018542;28;20508;-79
2023/04/16 04:49:02;;;;;;;56.80;24.50;;;;;;;8.71;100.00;102092.06;5017616;28;20410;-79
2023/04/16 04:51:27;;;;;;;57.80;24.60;;;;;;;8.76;100.00;102094.66;5017135;28;20112;-79
2023/04/16 04:53:53;;;;;;;54.65;24.60;;;;;;;8.52;100.00;102084.09;5020208;28;20061;-79
2023/04/16 04:56:18;;;;;;;66.35;27.40;;;;;;;8.57;100.00;102092.28;5021099;28;20025;-79
2023/04/16 04:58:43;;;;;;;73.18;29.10;;;;;;;8.55;100.00;102089.00;5016040;28;20971;-79
2023/04/16 05:01:09;;;;;;;53.08;24.10;;;;;;;8.67;100.00;102097.50;5019728;28;20604;-79
2023/04/16 05:03:34;;;;;;;53.22;23.42;;;;;;;8.75;100.00;102096.63;5016258;28;20099;-78
2023/04/16 05:06:00;;;;;;;54.45;25.20;;;;;;;8.70;100.00;102105.19;5015047;28;20491;-79
2023/04/16 05:08:25;;;;;;;68.65;27.30;;;;;;;8.68;100.00;102106.69;5019902;28;20029;-79
2023/04/16 05:10:51;;;;;;;65.70;24.90;;;;;;;8.69;100.00;102108.34;5019519;28;20095;-78
2023/04/16 05:13:16;;;;;;;57.10;26.75;;;;;;;8.64;100.00;102097.34;5018549;28;20053;-79
2023/04/16 05:15:43;;;;;;;63.83;25.13;;;;;;;8.63;100.00;102106.88;5016260;28;20025;-80
2023/04/16 05:18:08;;;;;;;72.22;29.85;;;;;;;8.63;100.00;102113.28;5009404;28;20541;-79
2023/04/16 05:20:34;;;;;;;57.35;25.50;;;;;;;8.70;100.00;102107.16;5017012;28;20086;-78
2023/04/16 05:22:59;;;;;;;75.07;30.65;;;;;;;8.67;100.00;102122.63;5015871;28;20033;-80
2023/04/16 05:25:25;;;;;;;70.50;30.92;;;;;;;8.66;100.00;102131.31;5016585;28;20021;-79
2023/04/16 05:27:50;;;;;;;59.92;28.08;;;;;;;8.59;100.00;102128.22;5013123;28;20033;-79
2023/04/16 05:30:15;;;;;;;68.18;29.20;;;;;;;8.60;100.00;102135.44;5014275;28;20383;-79
2023/04/16 05:32:41;;;;;;;74.18;28.85;;;;;;;8.61;100.00;102132.31;5011371;28;20048;-79
2023/04/16 05:35:06;;;;;;;71.35;28.70;;;;;;;8.50;100.00;102120.72;5013382;28;20116;-79
2023/04/16 05:37:31;;;;;;;63.30;26.77;;;;;;;8.67;100.00;102133.78;5013391;28;20559;-79
2023/04/16 05:39:57;;;;;;;62.05;26.42;;;;;;;8.66;100.00;102128.53;5005586;28;20114;-79
2023/04/16 05:42:22;;;;;;;75.55;29.83;;;;;;;8.50;100.00;102133.84;5013109;28;20017;-79
2023/04/16 05:44:49;;;;;;;72.07;30.20;;;;;;;8.64;100.00;102153.16;5009985;28;20116;-79
2023/04/16 05:47:16;;;;;;;67.30;28.80;;;;;;;8.52;100.00;102139.91;5011484;28;20033;-79
2023/04/16 05:49:41;;;;;;;79.25;30.40;;;;;;;8.54;100.00;102143.19;5021444;28;20029;-79
2023/04/16 05:52:06;;;;;;;72.25;30.90;;;;;;;8.61;100.00;102142.69;5006378;28;20036;-79
2023/04/16 05:54:32;;;;;;;84.43;30.80;;;;;;;8.61;100.00;102135.13;5015577;28;20057;-79
2023/04/16 05:57:00;;;;;;;77.50;31.40;;;;;;;8.70;100.00;102140.66;5007669;28;20063;-79
2023/04/16 05:59:25;;;;;;;90.60;33.40;;;;;;;8.55;100.00;102151.22;5016447;28;20555;-79
2023/04/16 06:01:51;;;;;;;80.55;32.08;;;;;;;8.63;100.00;102154.31;5013485;28;20080;-79
2023/04/16 06:04:16;;;;;;;78.03;33.28;;;;;;;8.64;100.00;102153.97;5011467;28;20068;-79
2023/04/16 06:06:41;;;;;;;77.07;31.00;;;;;;;8.67;100.00;102155.28;5025594;28;20049;-79
2023/04/16 06:09:07;;;;;;;70.38;29.05;;;;;;;8.67;100.00;102155.28;5026577;28;20347;-79
2023/04/16 06:11:32;;;;;;;78.78;32.75;;;;;;;8.69;100.00;102161.38;5012645;28;20060;-79
2023/04/16 06:13:58;;;;;;;83.53;32.85;;;;;;;8.71;100.00;102159.06;5010295;28;20516;-79
2023/04/16 06:16:23;;;;;;;80.22;30.70;;;;;;;8.80;100.00;102159.84;5008650;28;20031;-79
2023/04/16 06:18:48;;;;;;;66.80;28.08;;;;;;;8.75;100.00;102155.25;5012816;28;20033;-79
2023/04/16 06:21:14;;;;;;;68.95;28.65;;;;;;;8.80;100.00;102162.63;5016850;28;20022;-79
2023/04/16 06:23:40;;;;;;;76.43;30.65;;;;;;;8.72;100.00;102149.53;5018383;28;20120;-79
2023/04/16 06:26:05;;;;;;;69.47;29.55;;;;;;;8.71;100.00;102156.28;5012771;28;20036;-79
2023/04/16 06:28:30;;;;;;;84.95;32.47;;;;;;;8.77;100.00;102145.72;5027855;28;20033;-79
2023/04/16 06:30:56;;;;;;;74.18;29.50;;;;;;;8.91;100.00;102180.63;5014631;28;20051;-79
2023/04/16 06:33:22;;;;;;;70.45;29.65;;;;;;;8.79;100.00;102166.59;5004928;28;20040;-79
2023/04/16 06:35:47;;;;;;;89.05;33.13;;;;;;;8.77;100.00;102168.91;5012897;28;20034;-79
2023/04/16 06:38:13;;;;;;;72.90;30.92;;;;;;;8.74;100.00;102164.78;5021366;28;20036;-79
2023/04/16 06:40:39;;;;;;;71.13;31.02;;;;;;;8.92;100.00;102175.91;5015799;28;20468;-79
2023/04/16 06:43:04;;;;;;;76.75;30.00;;;;;;;8.88;100.00;102175.75;5042954;28;20155;-79
2023/04/16 06:45:30;;;;;;;76.50;32.53;;;;;;;8.92;100.00;102173.09;5027697;28;20383;-79
2023/04/16 06:47:57;;;;;;;78.57;29.80;;;;;;;8.92;100.00;102178.69;5021677;28;20485;-79
2023/04/16 06:50:25;;;;;;;78.50;33.22;;;;;;;8.92;100.00;102176.72;5028874;28;20084;-79
2023/04/16 06:52:51;;;;;;;81.50;32.45;;;;;;;8.87;100.00;102184.44;5028699;28;20497;-79
2023/04/16 06:55:22;;;;;;;79.07;30.02;;;;;;;8.86;100.00;102185.59;5023533;28;20033;-79
2023/04/16 06:57:47;;;;;;;73.45;28.05;;;;;;;8.94;100.00;102187.56;5016934;28;20521;-79
2023/04/16 07:00:13;;;;;;;75.32;30.80;;;;;;;8.95;100.00;102186.38;5026012;28;20063;-79
2023/04/16 07:02:38;;;;;;;73.40;29.92;;;;;;;8.95;100.00;102191.97;5023476;28;20037;-79
2023/04/16 07:05:04;;;;;;;81.13;30.95;;;;;;;8.94;100.00;102190.34;5026301;28;20033;-79
2023/04/16 07:07:29;;;;;;;75.78;28.70;;;;;;;8.94;100.00;102196.75;5022718;28;20121;-79
2023/04/16 07:09:55;;;;;;;77.07;30.20;;;;;;;8.99;100.00;102190.16;5021165;28;20060;-79
2023/04/16 07:12:20;;;;;;;83.45;29.95;;;;;;;9.03;100.00;102199.50;5017359;28;20489;-79
2023/04/16 07:14:46;;;;;;;77.25;30.60;;;;;;;8.95;100.00;102200.34;5017737;28;20509;-80
2023/04/16 07:17:11;;;;;;;81.63;28.85;;;;;;;9.00;100.00;102204.91;5013626;28;20541;-79
2023/04/16 07:19:36;;;;;;;68.60;29.48;;;;;;;9.12;100.00;102202.25;5019207;28;20385;-79
2023/04/16 07:22:02;;;;;;;70.38;28.25;;;;;;;9.05;100.00;102202.78;5021166;28;20036;-79
2023/04/16 07:24:28;;;;;;;65.93;26.98;;;;;;;9.04;100.00;102215.09;5017650;28;20037;-79
2023/04/16 07:26:53;;;;;;;77.70;31.08;;;;;;;8.97;100.00;102213.97;5022360;28;20037;-79
2023/04/16 07:29:19;;;;;;;81.60;32.35;;;;;;;8.96;100.00;102215.97;5034146;28;20115;-79
2023/04/16 07:31:44;;;;;;;75.43;31.30;;;;;;;8.92;100.00;102212.19;5013246;28;20040;-79
2023/04/16 07:34:10;;;;;;;65.78;29.17;;;;;;;9.16;100.00;102220.78;5016084;28;20034;-79
2023/04/16 07:36:35;;;;;;;65.05;26.40;;;;;;;9.15;100.00;102223.94;5025283;28;20021;-79
2023/04/16 07:39:01;;;;;;;74.13;31.52;;;;;;;9.16;100.00;102226.38;5012985;28;20104;-79
2023/04/16 07:41:28;;;;;;;65.57;28.67;;;;;;;9.16;100.00;102220.78;5021588;28;20112;-79
2023/04/16 07:43:53;;;;;;;78.82;28.98;;;;;;;9.11;100.00;102226.56;5017600;28;20076;-79
2023/04/16 07:46:19;;;;;;;66.43;28.27;;;;;;;9.13;100.00;102227.06;5017333;28;20041;-79
2023/04/16 07:48:45;;;;;;;86.90;32.88;;;;;;;9.14;100.00;102234.28;5014607;28;20048;-79
2023/04/16 07:51:10;;;;;;;74.63;29.27;;;;;;;9.12;100.00;102231.00;5008032;28;20564;-81
2023/04/16 07:53:36;;;;;;;74.80;30.10;;;;;;;9.23;100.00;102233.41;5013390;28;20401;-81
2023/04/16 07:56:01;;;;;;;75.90;31.08;;;;;;;9.39;100.00;102237.28;5022387;28;20144;-81
2023/04/16 07:58:26;;;;;;;87.78;32.22;;;;;;;9.52;100.00;102247.41;5017766;28;20040;-81
2023/04/16 08:00:52;;;;;;;90.97;35.45;;;;;;;9.57;100.00;102240.78;5022705;28;20029;-81
2023/04/16 08:03:17;;;;;;;84.22;33.47;;;;;;;9.59;100.00;102237.66;5015081;28;20091;-81
2023/04/16 08:05:42;;;;;;;78.40;32.42;;;;;;;9.59;100.00;102238.47;5022791;28;20080;-81
2023/04/16 08:08:08;;;;;;;66.15;27.67;;;;;;;9.63;100.00;102236.66;5017245;28;20153;-81
2023/04/16 08:10:33;;;;;;;66.40;28.15;;;;;;;9.55;100.00;102243.13;5019675;28;20030;-81
2023/04/16 08:13:00;;;;;;;75.60;28.27;;;;;;;9.67;100.00;102253.56;5023229;28;20119;-81
2023/04/16 08:15:26;;;;;;;58.85;27.02;;;;;;;9.75;100.00;102252.69;5026934;28;20026;-81
2023/04/16 08:17:52;;;;;;;63.60;26.63;;;;;;;9.83;100.00;102254.63;5016937;28;20661;-81
2023/04/16 08:20:20;;;;;;;59.63;24.90;;;;;;;9.76;100.00;102245.94;5036905;28;20324;-81
2023/04/16 08:22:45;;;;;;;58.83;26.55;;;;;;;9.93;100.00;102257.03;5019719;28;20140;-81
2023/04/16 08:25:11;;;;;;;62.33;28.10;;;;;;;10.04;100.00;102270.63;5017871;28;20152;-81
2023/04/16 08:27:36;;;;;;;61.90;25.33;;;;;;;10.05;100.00;102269.44;5030278;28;20669;-81
2023/04/16 08:30:02;;;;;;;61.33;26.17;;;;;;;10.18;100.00;102257.16;5017460;28;20031;-81
2023/04/16 08:32:27;;;;;;;58.13;25.13;;;;;;;10.26;100.00;102272.25;5004965;28;20132;-81
2023/04/16 08:34:53;;;;;;;63.55;26.23;;;;;;;10.35;100.00;102271.06;5008776;28;20025;-81
2023/04/16 08:37:18;;;;;;;61.55;27.45;;;;;;;10.25;100.00;102276.22;5015425;28;20124;-81
2023/04/16 08:39:44;;;;;;;65.22;28.13;;;;;;;10.46;100.00;102271.44;5021981;28;20065;-81
2023/04/16 08:42:17;;;;;;;59.50;27.10;;;;;;;10.50;100.00;102272.41;5015197;28;20474;-81
2023/04/16 08:44:48;;;;;;;58.28;25.65;;;;;;;10.57;100.00;102278.25;5013387;28;20064;-81
2023/04/16 08:47:15;;;;;;;54.55;23.50;;;;;;;10.45;100.00;102268.97;5015629;28;20060;-81
2023/04/16 08:49:47;;;;;;;59.10;26.33;;;;;;;10.68;100.00;102289.84;5009943;28;20493;-81
2023/04/16 08:52:17;;;;;;;65.13;28.23;;;;;;;10.83;100.00;102285.56;5005178;28;20120;-81
2023/04/16 08:54:51;;;;;;;55.22;24.73;;;;;;;10.95;100.00;102282.00;5011021;28;20486;-81
2023/04/16 08:57:19;;;;;;;51.90;26.70;;;;;;;10.80;100.00;102291.06;5014405;28;20026;-81
2023/04/16 08:59:46;;;;;;;52.05;23.48;;;;;;;10.99;100.00;102294.16;5014947;28;20037;-81
2023/04/16 09:02:12;;;;;;;52.03;22.92;;;;;;;10.98;100.00;102273.72;5013227;28;20594;-82
2023/04/16 09:04:39;;;;;;;51.22;24.13;;;;;;;11.10;100.00;102295.34;5029224;28;20128;-81
2023/04/16 09:07:07;;;;;;;63.97;25.00;;;;;;;10.90;100.00;102279.41;5018365;28;20069;-81
2023/04/16 09:09:32;;;;;;;57.47;24.33;;;;;;;11.04;100.00;102291.13;5019882;28;20509;-81
2023/04/16 09:11:58;;;;;;;49.47;20.67;;;;;;;11.15;100.00;102295.13;5021522;28;20025;-81
2023/04/16 09:14:24;;;;;;;49.65;23.27;;;;;;;11.09;100.00;102288.09;5019155;28;20048;-84
2023/04/16 09:16:51;;;;;;;62.67;26.30;;;;;;;11.11;100.00;102282.97;5016290;28;20024;-84
2023/04/16 09:19:17;;;;;;;55.25;26.40;;;;;;;11.07;100.00;102290.44;5018016;28;20037;-84
2023/04/16 09:21:45;;;;;;;54.67;23.48;;;;;;;11.16;100.00;102290.34;5010552;28;20033;-84
2023/04/16 09:24:11;;;;;;;52.25;22.30;;;;;;;11.23;100.00;102290.56;5013727;28;20044;-82
2023/04/16 09:26:36;;;;;;;54.40;23.55;;;;;;;11.32;100.00;102301.69;5017668;28;20029;-82
2023/04/16 09:29:02;;;;;;;54.35;23.33;;;;;;;11.27;100.00;102293.50;5025773;28;20039;-82
2023/04/16 09:31:27;;;;;;;59.60;24.25;;;;;;;11.20;100.00;102294.09;5019903;28;20037;-82
2023/04/16 09:34:13;;;;;;;54.65;23.73;;;;;;;11.14;100.00;102293.47;5021887;28;20075;-82
2023/04/16 09:36:38;;;;;;;56.08;24.55;;;;;;;11.38;100.00;102289.06;5019115;28;20053;-82
2023/04/16 09:39:03;;;;;;;54.78;21.00;;;;;;;11.54;100.00;102300.44;5020270;28;20033;-82
2023/04/16 09:41:31;;;;;;;49.72;23.30;;;;;;;11.56;100.00;102301.69;5017708;28;20038;-82
2023/04/16 09:44:03;;;;;;;47.78;23.90;;;;;;;11.38;100.00;102295.50;5016504;28;20037;-81
2023/04/16 09:46:29;;;;;;;56.53;23.80;;;;;;;11.41;100.00;102299.59;5014931;28;20493;-82
2023/04/16 09:48:55;;;;;;;51.58;22.92;;;;;;;11.54;100.00;102308.84;5017051;28;20586;-82
2023/04/16 09:51:20;;;;;;;62.13;24.63;;;;;;;11.51;100.00;102304.75;5012432;28;20115;-82
2023/04/16 09:53:46;;;;;;;51.42;24.30;;;;;;;11.37;100.00;102298.66;5017826;28;20061;-82
2023/04/16 09:56:11;;;;;;;54.63;23.92;;;;;;;11.52;100.00;102306.38;5023091;28;20030;-82
2023/04/16 09:58:37;;;;;;;49.58;21.40;;;;;;;11.63;100.00;102294.69;5014187;28;20037;-82
2023/04/16 10:01:02;;;;;;;55.58;22.52;;;;;;;11.69;100.00;102304.50;5008564;28;20780;-82
2023/04/16 10:03:30;;;;;;;50.25;22.50;;;;;;;11.72;100.00;102306.59;5020868;28;20025;-83
2023/04/16 10:06:12;;;;;;;56.15;24.50;;;;;;;11.76;100.00;102299.97;5012331;28;20030;-82
2023/04/16 10:08:51;;;;;;;51.25;20.95;;;;;;;11.86;100.00;102298.66;5005127;28;21451;-82
2023/04/16 10:11:18;;;;;;;46.20;22.08;;;;;;;12.06;100.00;102307.31;5019647;28;20036;-82
2023/04/16 10:13:44;;;;;;;45.45;21.88;;;;;;;11.91;100.00;102306.03;5021794;28;20060;-82
2023/04/16 10:16:10;;;;;;;60.45;23.55;;;;;;;11.84;100.00;102309.41;5030723;28;20021;-82
2023/04/16 10:18:38;;;;;;;47.67;22.17;;;;;;;11.86;100.00;102303.44;5015770;28;20037;-81
2023/04/16 10:21:04;;;;;;;43.28;21.80;;;;;;;11.96;100.00;102306.63;5014432;28;20065;-82
2023/04/16 10:23:30;;;;;;;45.75;22.67;;;;;;;12.10;100.00;102313.84;5034559;28;20509;-82
2023/04/16 10:25:57;;;;;;;48.17;23.92;;;;;;;12.11;100.00;102307.88;5018547;28;20121;-82
2023/04/16 10:28:23;;;;;;;52.78;23.08;;;;;;;12.13;100.00;102313.16;5017333;28;20489;-82
2023/04/16 10:30:53;;;;;;;57.28;25.40;;;;;;;12.28;100.00;102317.22;5011097;28;20483;-82
2023/04/16 10:33:26;;;;;;;40.35;21.55;;;;;;;12.35;100.00;102315.47;5014044;28;21010;-82
2023/04/16 10:36:05;;;;;;;50.15;22.45;;;;;;;12.44;100.00;102315.31;5010345;28;20087;-82
2023/04/16 10:38:31;;;;;;;42.80;21.65;;;;;;;12.51;100.00;102320.31;5021971;28;20490;-82
2023/04/16 10:41:02;;;;;;;47.47;21.30;;;;;;;12.46;100.00;102320.53;5008142;28;20040;-82
2023/04/16 10:43:29;;;;;;;48.67;23.00;;;;;;;12.60;100.00;102318.16;5013743;28;20045;-82
2023/04/16 10:45:54;;;;;;;49.83;22.08;;;;;;;12.64;100.00;102319.09;5006869;28;20394;-82
2023/04/16 10:48:20;;;;;;;51.88;22.58;;;;;;;12.66;100.00;102319.53;5011296;28;20029;-82
2023/04/16 10:50:56;;;;;;;45.53;21.98;;;;;;;12.75;100.00;102327.81;5010167;28;20053;-82
2023/04/16 10:53:24;;;;;;;52.47;22.38;;;;;;;12.78;100.00;102325.13;5026146;28;20091;-82
2023/04/16 10:56:01;;;;;;;50.72;21.25;;;;;;;13.04;100.00;102311.75;5012762;28;20057;-82
2023/04/16 10:58:28;;;;;;;50.78;22.08;;;;;;;12.96;100.00;102317.16;5014155;28;20634;-82
2023/04/16 11:00:54;;;;;;;48.30;22.15;;;;;;;12.83;100.00;102318.41;5009120;28;20040;-82
2023/04/16 11:03:19;;;;;;;48.50;22.95;;;;;;;12.76;100.00;102319.03;5012558;28;20037;-82